Time;durP1;ratioP1;P1;durP2;ratioP2;P2;SDS_P1;SDS_P2;PMS_P1;PMS_P2;Temp;Humidity;BMP_temperature;BMP_pressure;BME280_temperature;BME280_humidity;BME280_pressure;Samples;Min_cycle;Max_cycle;Signal;HPM_P1;HPM_P2
2022/06/04 00:00:25;;;;;;;;;25.50;25.50;;;;;18.51;83.55;101307.84;5076137;28;49784;-71
2022/06/04 00:02:51;;;;;;;;;25.25;23.50;;;;;18.52;83.82;101309.59;5076043;28;49844;-71
2022/06/04 00:05:21;;;;;;;;;26.25;26.25;;;;;18.49;83.58;101312.28;5075747;28;50464;-71
2022/06/04 00:07:47;;;;;;;;;22.50;21.00;;;;;18.42;83.54;101298.13;5075787;28;49802;-69
2022/06/04 00:15:47;;;;;;;;;29.50;26.00;;;;;18.46;83.72;101314.97;5075546;28;49914;-70
2022/06/04 00:18:14;;;;;;;;;22.00;21.50;;;;;18.45;83.38;101314.06;5075803;28;49709;-71
2022/06/04 00:20:40;;;;;;;;;26.25;26.25;;;;;18.44;83.84;101319.41;5057414;28;49703;-71
2022/06/04 00:23:07;;;;;;;;;35.00;28.25;;;;;18.39;84.03;101314.09;5075570;28;49661;-69
2022/06/04 00:25:33;;;;;;;;;26.25;26.25;;;;;18.38;83.93;101312.31;5075438;28;50521;-70
2022/06/04 00:28:00;;;;;;;;;27.50;26.00;;;;;18.37;84.00;101315.88;5075367;28;49809;-68
2022/06/04 00:30:26;;;;;;;;;32.25;31.50;;;;;18.36;83.92;101311.44;5075053;27;49886;-67
2022/06/04 00:32:52;;;;;;;;;27.50;25.00;;;;;18.33;84.00;101319.41;5075806;28;49728;-67
2022/06/04 00:35:18;;;;;;;;;28.50;26.00;;;;;18.35;83.70;101322.97;5075202;28;50599;-67
2022/06/04 00:37:43;;;;;;;;;33.50;29.25;;;;;18.38;83.64;101333.59;5075244;28;49554;-67
2022/06/04 00:40:13;;;;;;;;;25.50;25.50;;;;;18.34;83.69;101321.19;5075462;28;49793;-67
2022/06/04 00:42:39;;;;;;;;;24.25;24.25;;;;;18.35;83.66;101324.75;5075257;28;49781;-67
2022/06/04 00:45:19;;;;;;;;;25.00;23.00;;;;;18.30;83.80;101309.66;5074761;28;57307;-68
2022/06/04 00:47:44;;;;;;;;;30.00;29.75;;;;;18.23;83.74;101291.97;5075446;28;49604;-67
2022/06/04 00:50:12;;;;;;;;;26.25;25.25;;;;;18.23;83.94;101297.28;5075037;28;49871;-67
2022/06/04 00:52:38;;;;;;;;;29.00;26.75;;;;;18.17;83.65;101281.38;5075173;28;49974;-67
2022/06/04 00:55:06;;;;;;;;;30.00;28.50;;;;;18.25;83.59;101284.91;5074971;28;49705;-67
2022/06/04 00:57:34;;;;;;;;;31.75;27.50;;;;;18.23;83.63;101280.44;5075133;28;49578;-67
2022/06/04 01:00:17;;;;;;;;;28.75;27.75;;;;;18.20;83.78;101270.72;5075084;28;49657;-67
2022/06/04 01:03:21;;;;;;;;;31.25;30.25;;;;;18.19;83.63;101273.38;5075293;28;49679;-67
2022/06/04 01:06:01;;;;;;;;;33.25;30.00;;;;;18.19;83.68;101289.31;4992544;28;50674;-68
2022/06/04 01:08:26;;;;;;;;;30.00;28.75;;;;;18.17;83.54;101289.34;4992489;28;50015;-67
2022/06/04 01:11:22;;;;;;;;;25.75;23.75;;;;;18.13;83.64;101279.56;5035816;28;49925;-67
2022/06/04 01:14:06;;;;;;;;;29.50;28.50;;;;;18.12;83.94;101284.91;5075025;28;49651;-67
2022/06/04 01:16:36;;;;;;;;;26.25;26.00;;;;;18.03;83.78;101259.22;5074699;28;49731;-67
2022/06/04 01:19:07;;;;;;;;;31.25;29.75;;;;;18.08;83.78;101272.53;5074841;28;49619;-67
2022/06/04 01:21:33;;;;;;;;;31.00;30.00;;;;;18.11;83.86;101269.84;5074835;28;49759;-67
2022/06/04 01:24:21;;;;;;;;;34.25;32.75;;;;;18.10;83.64;101268.09;5074714;28;49939;-68
2022/06/04 01:27:07;;;;;;;;;25.00;23.00;;;;;18.11;83.73;101264.53;5074378;27;50582;-67
2022/06/04 01:29:47;;;;;;;;;32.75;31.25;;;;;18.12;83.71;101267.19;5074741;28;50074;-67
2022/06/04 01:32:44;;;;;;;;;32.75;28.25;;;;;18.09;83.61;101253.91;5056250;28;49764;-67
2022/06/04 01:35:16;;;;;;;;;32.25;28.50;;;;;18.10;83.56;101242.41;5074696;28;49635;-67
2022/06/04 01:38:09;;;;;;;;;25.75;24.75;;;;;18.10;83.84;101245.06;5074180;28;49572;-68
2022/06/04 01:43:29;;;;;;;;;31.00;28.25;;;;;18.14;83.22;101236.19;5074558;27;49926;-67
2022/06/04 01:46:01;;;;;;;;;29.25;29.25;;;;;18.13;83.39;101234.41;5073286;28;49869;-67
2022/06/04 01:48:31;;;;;;;;;29.25;27.25;;;;;18.16;83.08;101226.47;5072891;28;52932;-70
2022/06/04 01:51:00;;;;;;;;;30.00;29.00;;;;;18.15;82.93;101226.47;5074051;28;49665;-67
2022/06/04 01:53:32;;;;;;;;;29.50;29.25;;;;;18.07;83.37;101220.28;5074210;28;49826;-67
2022/06/04 01:56:03;;;;;;;;;29.50;26.25;;;;;18.11;83.28;101224.69;5067918;27;49834;-68
2022/06/04 01:58:36;;;;;;;;;35.25;31.75;;;;;18.17;83.16;101233.53;5073961;28;49940;-67
2022/06/04 02:01:07;;;;;;;;;27.25;26.00;;;;;18.17;82.91;101238.84;5074230;28;49804;-67
2022/06/04 02:03:42;;;;;;;;;31.25;30.75;;;;;18.18;83.08;101247.69;5074044;28;49460;-68
2022/06/04 02:06:19;;;;;;;;;27.75;26.50;;;;;18.18;83.26;101245.03;5074424;28;49961;-67
2022/06/04 02:08:53;;;;;;;;;25.00;25.00;;;;;18.19;83.17;101241.50;5073813;28;49657;-67
2022/06/04 02:11:22;;;;;;;;;27.50;27.00;;;;;18.19;83.17;101247.69;5073821;28;49800;-67
2022/06/04 02:13:50;;;;;;;;;31.50;28.75;;;;;18.23;82.93;101248.56;5073968;28;49893;-67
2022/06/04 02:16:33;;;;;;;;;31.50;30.25;;;;;18.19;83.02;101262.75;5074062;27;49838;-68
2022/06/04 02:18:59;;;;;;;;;24.50;24.00;;;;;18.21;83.07;101263.63;5073771;28;50500;-67
2022/06/04 02:21:27;;;;;;;;;28.00;28.00;;;;;18.22;83.07;101268.94;5073436;28;49965;-68
2022/06/04 02:23:54;;;;;;;;;30.50;27.50;;;;;18.25;83.13;101282.25;5073856;28;49538;-68
2022/06/04 02:26:19;;;;;;;;;32.50;28.25;;;;;18.26;82.87;101267.19;5074054;28;49939;-67
2022/06/04 02:28:46;;;;;;;;;30.75;29.00;;;;;18.31;82.55;101258.28;5067025;28;49684;-67
2022/06/04 02:31:47;;;;;;;;;27.50;24.50;;;;;18.32;82.53;101237.91;5073492;27;49664;-68
2022/06/04 02:34:44;;;;;;;;;34.75;30.75;;;;;18.31;82.49;101225.50;5073845;28;49695;-67
2022/06/04 02:37:12;;;;;;;;;29.75;27.75;;;;;18.30;82.67;101218.41;5073678;28;49898;-67
2022/06/04 02:39:58;;;;;;;;;27.00;25.75;;;;;18.31;82.56;101221.06;5073527;28;49762;-67
2022/06/04 02:42:32;;;;;;;;;30.00;27.00;;;;;18.35;82.42;101226.41;5073412;28;49612;-67
2022/06/04 02:45:04;;;;;;;;;19.75;16.25;;;;;18.35;82.15;101224.63;5073653;28;49614;-67
2022/06/04 02:47:48;;;;;;;;;29.25;27.50;;;;;18.40;82.03;101222.81;5073482;27;49660;-68
2022/06/04 02:50:21;;;;;;;;;24.50;24.50;;;;;18.38;82.20;101221.94;5067257;28;49852;-67
2022/06/04 02:52:48;;;;;;;;;26.25;24.75;;;;;18.36;82.35;101215.75;5073178;28;49579;-70
2022/06/04 02:55:23;;;;;;;;;28.25;25.75;;;;;18.36;81.87;101210.44;5073453;28;49811;-68
2022/06/04 02:57:54;;;;;;;;;28.50;26.00;;;;;18.34;82.31;101200.72;5073542;28;49881;-70
2022/06/04 03:00:23;;;;;;;;;21.00;21.00;;;;;18.33;82.39;101190.94;5073326;28;49683;-71
2022/06/04 03:02:49;;;;;;;;;27.25;25.50;;;;;18.33;82.42;101186.50;5073406;27;49866;-67
2022/06/04 03:05:18;;;;;;;;;26.75;24.50;;;;;18.32;82.42;101190.06;5073459;28;49773;-67
2022/06/04 03:07:47;;;;;;;;;28.00;26.00;;;;;18.26;82.63;101183.00;5076480;28;49620;-68
2022/06/04 03:10:25;;;;;;;;;28.75;28.75;;;;;18.24;82.93;101189.22;5076484;28;49868;-70
2022/06/04 03:12:51;;;;;;;;;24.00;24.00;;;;;18.22;83.07;101189.22;5076858;28;49766;-72
2022/06/04 03:15:17;;;;;;;;;25.75;24.75;;;;;18.20;82.88;101192.78;5076785;27;49636;-70
2022/06/04 03:17:44;;;;;;;;;31.50;29.00;;;;;18.18;83.61;101194.56;5076922;28;49598;-68
2022/06/04 03:20:12;;;;;;;;;31.00;28.00;;;;;18.17;83.39;101190.13;5076440;28;49706;-68
2022/06/04 03:22:38;;;;;;;;;34.00;31.00;;;;;18.14;83.41;101183.03;5076376;28;49767;-67
2022/06/04 03:25:04;;;;;;;;;28.25;25.00;;;;;18.15;83.67;101183.94;5076763;27;49944;-68
2022/06/04 03:27:29;;;;;;;;;25.75;25.75;;;;;18.14;83.30;101192.78;5076771;28;49854;-68
2022/06/04 03:29:55;;;;;;;;;25.50;25.25;;;;;18.18;83.41;101199.88;5076312;28;49656;-67
2022/06/04 03:32:20;;;;;;;;;27.75;24.75;;;;;18.21;83.28;101191.88;5076497;28;49868;-68
2022/06/04 03:34:45;;;;;;;;;28.50;27.75;;;;;18.11;83.46;101158.25;5076553;28;50059;-68
2022/06/04 03:37:11;;;;;;;;;36.00;30.75;;;;;18.15;83.54;101163.56;5075818;27;49799;-67
2022/06/04 03:39:36;;;;;;;;;27.00;24.50;;;;;18.13;83.44;101173.31;5076249;28;50326;-70
2022/06/04 03:42:03;;;;;;;;;21.75;21.25;;;;;18.15;83.36;101186.59;5076532;28;49862;-70
2022/06/04 03:44:28;;;;;;;;;23.00;23.00;;;;;18.08;83.46;101180.41;5076352;28;49655;-68
2022/06/04 03:46:54;;;;;;;;;25.75;25.00;;;;;18.14;83.67;101203.41;5076610;28;49720;-68
2022/06/04 03:49:19;;;;;;;;;24.75;24.75;;;;;18.17;83.44;101217.59;5076020;28;50322;-70
2022/06/04 03:51:45;;;;;;;;;28.50;26.00;;;;;18.21;83.41;101226.44;5075642;28;49715;-70
2022/06/04 03:54:11;;;;;;;;;28.75;27.75;;;;;18.23;83.14;101216.66;5076067;27;49615;-69
2022/06/04 03:56:36;;;;;;;;;27.50;26.25;;;;;18.18;82.90;101206.06;5076487;28;49634;-71
2022/06/04 03:59:02;;;;;;;;;31.50;28.00;;;;;18.17;83.16;101208.75;5075965;28;49583;-68
2022/06/04 04:01:30;;;;;;;;;30.50;27.75;;;;;18.19;83.36;101218.47;5075969;28;49979;-70
2022/06/04 04:03:57;;;;;;;;;29.75;29.50;;;;;18.05;83.44;101196.38;5076001;28;49821;-71
2022/06/04 04:06:26;;;;;;;;;26.75;26.75;;;;;18.11;83.63;101212.28;5075766;28;49899;-68
2022/06/04 04:08:53;;;;;;;;;26.00;26.00;;;;;18.07;83.87;101214.97;5075581;28;50671;-68
2022/06/04 04:11:22;;;;;;;;;30.25;27.00;;;;;18.03;84.12;101208.75;5075660;28;49741;-68
2022/06/04 04:13:48;;;;;;;;;30.50;28.50;;;;;18.05;84.10;101214.97;5075925;28;49642;-68
2022/06/04 04:16:15;;;;;;;;;25.50;23.00;;;;;18.03;83.93;101225.59;5076100;28;49753;-68
2022/06/04 04:18:41;;;;;;;;;26.50;25.50;;;;;18.11;83.74;101259.22;5074602;28;49838;-68
2022/06/04 04:21:10;;;;;;;;;23.50;22.75;;;;;18.13;83.60;101268.94;5075402;28;49651;-71
2022/06/04 04:23:37;;;;;;;;;22.25;22.25;;;;;18.18;83.36;101277.81;5075770;28;49711;-67
2022/06/04 04:26:04;;;;;;;;;25.00;23.00;;;;;18.21;83.42;101275.13;5075712;28;49503;-71
2022/06/04 04:28:30;;;;;;;;;31.75;28.00;;;;;17.89;83.17;101247.75;5075376;27;51325;-72
2022/06/04 04:30:55;;;;;;;;;22.00;22.00;;;;;18.28;83.03;101291.97;5075418;28;49708;-68
2022/06/04 04:33:21;;;;;;;;;28.25;27.50;;;;;18.28;83.07;101284.88;5075458;28;49849;-68
2022/06/04 04:35:47;;;;;;;;;26.75;25.25;;;;;18.31;82.69;101282.19;5075762;28;49835;-68
2022/06/04 04:38:12;;;;;;;;;22.00;21.50;;;;;18.31;82.84;101284.84;5075186;28;50344;-68
2022/06/04 04:40:42;;;;;;;;;32.75;27.25;;;;;18.34;82.85;101284.00;5075311;28;49686;-71
2022/06/04 04:43:07;;;;;;;;;25.75;25.75;;;;;18.34;82.60;101275.13;5075401;27;49652;-70
2022/06/04 04:45:33;;;;;;;;;23.75;23.25;;;;;18.41;82.55;101292.81;5043811;28;49682;-71
2022/06/04 04:47:58;;;;;;;;;28.00;26.25;;;;;18.42;82.33;101286.59;5073718;28;49754;-67
2022/06/04 04:50:36;;;;;;;;;21.75;21.50;;;;;18.37;82.18;101261.81;5073940;28;49704;-70
2022/06/04 04:53:04;;;;;;;;;27.75;24.25;;;;;18.44;82.34;101263.56;5071491;28;49883;-68
2022/06/04 04:55:32;;;;;;;;;26.00;24.75;;;;;18.50;81.95;101300.75;5075461;28;49861;-68
2022/06/04 04:57:58;;;;;;;;;26.00;25.00;;;;;18.51;82.13;101310.50;5075255;27;50543;-71
2022/06/04 05:00:24;;;;;;;;;27.00;26.75;;;;;18.51;82.13;101323.78;5056809;28;49947;-68
2022/06/04 05:02:50;;;;;;;;;27.75;26.00;;;;;18.51;82.24;101329.09;5075116;28;49858;-70
2022/06/04 05:05:15;;;;;;;;;24.25;22.75;;;;;18.56;82.13;101360.13;5075328;28;49671;-73
2022/06/04 05:07:41;;;;;;;;;27.25;24.50;;;;;18.62;81.95;101345.91;5074738;28;50414;-70
2022/06/04 05:10:09;;;;;;;;;24.75;24.75;;;;;18.59;81.93;101312.25;5074844;28;49661;-71
2022/06/04 05:12:34;;;;;;;;;22.50;21.75;;;;;18.58;82.18;101293.66;5075001;28;49753;-71
2022/06/04 05:14:59;;;;;;;;;28.00;26.25;;;;;18.65;81.88;101294.53;5074949;28;49750;-70
2022/06/04 05:17:25;;;;;;;;;28.00;26.00;;;;;18.70;81.53;101295.41;5074696;28;49663;-68
2022/06/04 05:19:50;;;;;;;;;29.00;26.75;;;;;18.74;81.45;101305.16;5074872;28;49881;-70
2022/06/04 05:22:15;;;;;;;;;28.25;25.00;;;;;18.72;81.35;101281.22;5067102;28;49833;-70
2022/06/04 05:24:43;;;;;;;;;28.50;26.00;;;;;18.73;81.27;101261.72;5074739;28;49767;-70
2022/06/04 05:27:09;;;;;;;;;26.75;24.00;;;;;18.88;81.15;101290.88;5074479;28;50380;-69
2022/06/04 05:29:36;;;;;;;;;24.50;24.50;;;;;18.92;80.73;101288.22;5072750;28;49851;-68
2022/06/04 05:32:02;;;;;;;;;26.25;25.75;;;;;18.91;81.04;101274.00;5073834;28;49655;-70
2022/06/04 05:34:28;;;;;;;;;22.50;22.00;;;;;18.93;81.01;101272.25;5074190;28;49898;-68
2022/06/04 05:36:54;;;;;;;;;24.75;24.50;;;;;19.04;80.47;101280.16;5073885;28;49831;-69
2022/06/04 05:39:21;;;;;;;;;27.00;25.25;;;;;19.14;80.60;101274.78;5073927;28;49727;-68
2022/06/04 05:41:47;;;;;;;;;27.50;25.00;;;;;19.16;80.15;101265.00;5074300;28;49775;-68
2022/06/04 05:44:12;;;;;;;;;22.25;21.50;;;;;19.17;80.14;101266.78;5073730;28;49880;-69
2022/06/04 05:46:42;;;;;;;;;23.00;23.00;;;;;19.22;80.14;101272.06;5073954;28;49779;-68
2022/06/04 05:49:12;;;;;;;;;30.75;26.00;;;;;19.33;79.93;101259.56;5074043;28;49499;-68
2022/06/04 05:51:40;;;;;;;;;24.75;22.50;;;;;19.39;79.39;101255.97;5068885;28;49904;-68
2022/06/04 05:54:06;;;;;;;;;24.50;23.25;;;;;19.35;79.37;101251.56;5073689;28;49755;-69
2022/06/04 05:56:34;;;;;;;;;23.50;23.50;;;;;19.39;79.29;101256.84;5073839;28;50545;-69
2022/06/04 05:59:02;;;;;;;;;26.00;24.50;;;;;19.41;79.44;101272.84;5073708;28;49760;-70
2022/06/04 06:01:28;;;;;;;;;23.25;22.00;;;;;19.36;79.53;101286.16;5074132;28;49707;-68
2022/06/04 06:03:55;;;;;;;;;26.00;24.00;;;;;19.27;79.55;101298.66;5073916;28;49720;-68
2022/06/04 06:06:24;;;;;;;;;21.00;19.50;;;;;19.26;79.42;101347.47;5073800;28;49945;-69
2022/06/04 06:08:52;;;;;;;;;25.25;23.25;;;;;19.34;79.45;101378.47;5073412;28;49808;-69
2022/06/04 06:11:18;;;;;;;;;24.00;21.25;;;;;19.37;79.50;101383.78;5073671;28;49803;-69
2022/06/04 06:13:46;;;;;;;;;21.25;20.75;;;;;19.43;79.73;101369.56;5073758;27;50004;-68
2022/06/04 06:16:15;;;;;;;;;23.50;21.50;;;;;19.45;79.44;101352.66;5073628;28;50392;-69
2022/06/04 06:18:41;;;;;;;;;23.00;21.75;;;;;19.49;78.96;101342.88;5073527;28;49765;-69
2022/06/04 06:21:08;;;;;;;;;23.25;20.50;;;;;19.52;78.97;101342.88;5073525;28;49770;-68
2022/06/04 06:23:35;;;;;;;;;25.75;24.75;;;;;19.51;78.71;101345.53;5073369;28;49980;-68
2022/06/04 06:26:08;;;;;;;;;25.75;23.75;;;;;19.40;79.12;101332.31;5073224;28;49680;-69
2022/06/04 06:28:35;;;;;;;;;26.00;24.75;;;;;19.58;78.78;101364.16;5073409;28;49615;-69
2022/06/04 06:31:03;;;;;;;;;21.50;21.50;;;;;19.57;78.60;101359.72;5073562;28;49693;-69
2022/06/04 06:33:28;;;;;;;;;24.50;22.50;;;;;19.55;78.77;101363.25;5073573;28;49891;-69
2022/06/04 06:35:58;;;;;;;;;22.50;21.75;;;;;19.53;78.97;101370.38;5073076;28;50095;-69
2022/06/04 06:38:24;;;;;;;;;22.25;22.00;;;;;19.52;78.94;101377.50;5073321;28;49811;-68
2022/06/04 06:40:51;;;;;;;;;25.00;21.25;;;;;19.51;79.04;101375.72;5072735;28;49919;-68
2022/06/04 06:43:17;;;;;;;;;25.25;22.00;;;;;19.48;79.11;101370.41;5073449;28;49922;-68
2022/06/04 06:45:44;;;;;;;;;25.00;23.00;;;;;19.38;79.07;101352.69;5073178;28;49635;-79
2022/06/04 06:48:10;;;;;;;;;24.00;24.00;;;;;19.42;79.03;101381.09;5073397;28;49764;-68
2022/06/04 06:50:36;;;;;;;;;25.75;25.00;;;;;19.37;78.96;101383.78;5072609;28;49802;-68
2022/06/04 06:53:03;;;;;;;;;32.00;28.00;;;;;19.31;79.39;101383.81;5072779;28;49987;-68
2022/06/04 06:55:28;;;;;;;;;23.50;22.25;;;;;19.21;79.72;101378.56;5072914;28;50235;-67
2022/06/04 06:57:54;;;;;;;;;21.00;21.00;;;;;19.33;79.66;101386.47;5073118;28;49787;-68
2022/06/04 07:00:19;;;;;;;;;31.25;27.75;;;;;19.36;79.45;101374.03;5073070;28;49647;-67
2022/06/04 07:02:44;;;;;;;;;25.50;25.25;;;;;19.43;79.48;101362.44;5073354;28;49742;-68
2022/06/04 07:05:10;;;;;;;;;24.00;24.00;;;;;19.37;79.08;101319.88;5072541;28;49778;-70
2022/06/04 07:07:35;;;;;;;;;25.50;23.25;;;;;19.77;78.70;101351.59;5073049;28;50126;-69
2022/06/04 07:10:01;;;;;;;;;26.50;24.00;;;;;19.95;78.16;101339.91;5072757;28;49660;-69
2022/06/04 07:12:27;;;;;;;;;24.00;24.00;;;;;20.12;77.45;101342.41;5073179;28;49548;-67
2022/06/04 07:14:52;;;;;;;;;22.75;20.75;;;;;20.02;77.01;101304.31;5072594;28;51322;-67
2022/06/04 07:17:18;;;;;;;;;26.00;23.75;;;;;20.34;76.17;101346.63;5072889;28;49559;-64
2022/06/04 07:19:43;;;;;;;;;24.75;22.50;;;;;20.39;76.05;101347.50;5072319;28;49896;-65
2022/06/04 07:22:10;;;;;;;;;21.50;19.25;;;;;20.44;75.94;101351.00;5072785;28;49613;-66
2022/06/04 07:24:36;;;;;;;;;25.50;24.50;;;;;20.42;75.84;101354.56;5035750;28;52334;-71
2022/06/04 07:27:02;;;;;;;;;24.75;23.75;;;;;20.39;76.65;101339.50;5071104;28;49680;-71
2022/06/04 07:29:28;;;;;;;;;30.00;28.25;;;;;20.33;77.49;101312.00;5072574;28;49799;-71
2022/06/04 07:31:54;;;;;;;;;27.75;24.25;;;;;20.26;78.08;101314.72;5072853;28;49826;-71
2022/06/04 07:34:19;;;;;;;;;24.75;22.75;;;;;20.18;79.16;101337.91;5072317;28;49673;-71
2022/06/04 07:36:45;;;;;;;;;32.00;29.75;;;;;20.23;79.13;101352.06;5072531;28;49865;-69
2022/06/04 07:39:14;;;;;;;;;35.75;31.25;;;;;20.23;78.65;101364.53;5072239;28;49779;-69
2022/06/04 07:41:43;;;;;;;;;23.75;23.75;;;;;20.19;78.59;101369.00;5072985;28;49858;-68
2022/06/04 07:44:09;;;;;;;;;25.00;24.50;;;;;20.19;78.93;101384.13;5072302;28;50411;-68
2022/06/04 07:46:36;;;;;;;;;26.00;23.25;;;;;20.17;79.59;101388.56;5072416;28;49913;-68
2022/06/04 07:49:04;;;;;;;;;30.50;27.75;;;;;20.09;79.36;101385.09;5072347;28;49768;-67
2022/06/04 07:51:32;;;;;;;;;25.50;24.75;;;;;19.99;80.44;101398.50;5072409;28;50398;-69
2022/06/04 07:53:58;;;;;;;;;29.00;28.75;;;;;20.00;80.29;101412.72;5073893;27;50855;-65
2022/06/04 07:56:23;;;;;;;;;23.75;23.00;;;;;19.93;80.51;101387.88;5075697;28;49653;-66
2022/06/04 07:58:49;;;;;;;;;29.75;29.00;;;;;19.94;80.32;101394.97;5076012;28;49800;-68
2022/06/04 08:01:17;;;;;;;;;32.50;27.00;;;;;19.89;80.22;101390.59;5076172;28;49831;-68
2022/06/04 08:03:44;;;;;;;;;29.50;29.25;;;;;19.83;80.90;101380.84;5075391;28;49592;-68
2022/06/04 08:06:13;;;;;;;;;25.25;25.25;;;;;19.84;80.44;101371.97;5075375;28;49784;-67
2022/06/04 08:08:39;;;;;;;;;28.50;24.50;;;;;19.55;81.11;101308.22;5075394;28;49748;-68
2022/06/04 08:11:30;;;;;;;;;30.75;29.50;;;;;19.83;81.00;101356.00;5075644;28;49637;-66
2022/06/04 08:13:50;;;;;;;;;27.25;25.50;;;;;19.83;81.69;101354.22;5074200;27;49991;-69
2022/06/04 08:16:16;;;;;;;;;30.50;27.00;;;;;19.83;81.55;101354.22;5075342;28;49708;-67
2022/06/04 08:18:41;;;;;;;;;36.75;34.00;;;;;19.84;81.68;101345.31;5074796;28;49705;-69
2022/06/04 08:21:07;;;;;;;;;28.00;27.00;;;;;19.87;81.13;101358.59;5073693;28;49759;-67
2022/06/04 08:23:33;;;;;;;;;34.75;30.75;;;;;19.86;81.05;101353.28;5073294;28;49910;-70
2022/06/04 08:25:58;;;;;;;;;27.75;27.25;;;;;19.80;81.42;101343.59;5073433;28;49785;-67
2022/06/04 08:28:24;;;;;;;;;37.25;33.75;;;;;19.77;81.48;101356.91;5073501;28;49846;-65
2022/06/04 08:31:02;;;;;;;;;38.50;32.50;;;;;19.79;81.46;101381.78;5073514;28;49649;-66
2022/06/04 08:33:28;;;;;;;;;34.75;31.25;;;;;19.88;81.48;101388.78;5071141;28;49795;-65
2022/06/04 08:35:54;;;;;;;;;35.50;31.75;;;;;19.99;82.10;101384.28;5073222;28;50256;-68
2022/06/04 08:38:20;;;;;;;;;33.50;32.50;;;;;20.07;80.98;101381.53;5073338;28;49744;-65
2022/06/04 08:40:50;;;;;;;;;34.25;31.50;;;;;20.10;80.66;101385.09;5073272;27;49993;-66
2022/06/04 08:43:45;;;;;;;;;36.25;32.50;;;;;20.23;81.62;101386.72;5073366;28;50484;-66
2022/06/04 08:46:57;;;;;;;;;34.00;31.25;;;;;20.34;81.69;101373.31;5073186;28;49925;-66
2022/06/04 08:49:35;;;;;;;;;33.25;32.00;;;;;20.37;80.02;101378.63;5067891;28;50319;-65
2022/06/04 08:52:10;;;;;;;;;28.50;28.25;;;;;20.42;79.35;101382.13;5072879;28;50004;-66
2022/06/04 08:57:33;;;;;;;;;30.25;28.50;;;;;20.63;80.13;101366.81;5073363;28;49688;-66
2022/06/04 09:00:14;;;;;;;;;35.50;30.75;;;;;20.72;78.95;101370.25;5073555;28;50070;-66
2022/06/04 09:02:45;;;;;;;;;30.25;29.00;;;;;20.82;78.80;101371.03;5072952;28;50120;-68
2022/06/04 09:05:24;;;;;;;;;31.00;30.00;;;;;20.90;78.30;101381.63;5068322;28;49667;-66
2022/06/04 09:07:54;;;;;;;;;32.00;31.00;;;;;20.98;77.29;101394.00;5070988;28;49860;-69
2022/06/04 09:10:28;;;;;;;;;31.25;27.75;;;;;21.02;76.96;101395.69;5073377;28;49774;-66
2022/06/04 09:13:02;;;;;;;;;28.75;24.50;;;;;20.87;76.84;101377.22;5072832;28;50453;-68
2022/06/04 09:15:41;;;;;;;;;28.75;26.50;;;;;21.07;76.57;101399.22;5065615;27;49785;-67
2022/06/04 09:18:16;;;;;;;;;30.75;28.00;;;;;21.01;76.67;101411.75;5071232;28;49802;-66
2022/06/04 09:20:48;;;;;;;;;31.50;30.00;;;;;20.96;76.25;101400.25;5072980;28;49787;-69
2022/06/04 09:23:23;;;;;;;;;33.25;31.25;;;;;20.99;75.89;101403.75;5071600;28;49589;-67
2022/06/04 09:26:14;;;;;;;;;32.00;29.00;;;;;21.01;76.27;101393.94;5072785;28;50745;-67
2022/06/04 09:28:45;;;;;;;;;26.75;26.00;;;;;21.06;76.24;101394.78;5072091;28;49882;-66
2022/06/04 09:31:13;;;;;;;;;26.75;26.75;;;;;21.21;76.42;101400.81;5072699;28;49715;-67
2022/06/04 09:33:53;;;;;;;;;32.50;29.75;;;;;21.35;75.72;101397.09;5074719;28;49705;-66
2022/06/04 09:36:24;;;;;;;;;26.50;24.75;;;;;21.29;74.76;101383.81;5074501;28;49655;-65
2022/06/04 09:39:03;;;;;;;;;29.25;29.00;;;;;21.45;74.49;101397.88;5072565;28;49782;-65
2022/06/04 09:41:31;;;;;;;;;27.50;27.50;;;;;21.41;74.13;101385.44;5072726;28;49850;-66
2022/06/04 09:44:07;;;;;;;;;21.50;19.75;;;;;21.45;73.96;101373.81;5073187;27;49908;-66
2022/06/04 09:46:34;;;;;;;;;26.75;26.50;;;;;21.41;74.18;101350.72;5072940;28;50742;-67
2022/06/04 09:49:12;;;;;;;;;25.25;25.25;;;;;21.68;73.28;101389.50;5072646;28;50028;-66
2022/06/04 09:51:42;;;;;;;;;21.25;20.50;;;;;21.86;71.00;101378.53;5070285;28;49833;-67
2022/06/04 09:54:25;;;;;;;;;33.50;30.50;;;;;21.92;71.53;101394.50;5072826;27;49979;-67
2022/06/04 09:56:57;;;;;;;;;29.75;27.00;;;;;22.02;72.01;101387.19;5050947;28;50971;-66
2022/06/04 09:59:30;;;;;;;;;28.00;21.25;;;;;21.92;70.37;101370.44;5071361;28;49807;-69
2022/06/04 10:02:18;;;;;;;;;28.50;24.25;;;;;22.13;71.10;101395.97;5070188;28;49695;-69
2022/06/04 10:04:49;;;;;;;;;26.25;24.75;;;;;22.25;71.05;101387.72;5052895;28;49975;-67
2022/06/04 10:07:26;;;;;;;;;26.00;21.50;;;;;22.38;70.48;101391.03;5071641;28;50753;-65
2022/06/04 10:09:58;;;;;;;;;22.75;22.25;;;;;22.45;67.16;101395.38;5071184;28;49799;-67
2022/06/04 10:15:26;;;;;;;;;23.25;21.75;;;;;22.55;67.28;101394.31;5073110;28;49713;-71
2022/06/04 10:18:02;;;;;;;;;19.00;16.50;;;;;22.59;66.78;101373.75;5054020;28;52424;-66
2022/06/04 10:20:27;;;;;;;;;17.25;14.50;;;;;22.81;64.92;101392.94;5072955;28;50473;-71
2022/06/04 10:22:54;;;;;;;;;16.50;16.50;;;;;22.88;65.27;101396.41;5072147;27;49975;-72
2022/06/04 10:25:25;;;;;;;;;19.00;16.50;;;;;22.92;62.80;101388.28;5073358;28;50289;-67
2022/06/04 10:28:19;;;;;;;;;13.25;13.25;;;;;22.98;64.33;101388.16;5072573;28;50416;-64
2022/06/04 10:31:15;;;;;;;;;14.50;13.75;;;;;23.07;65.54;101385.28;5066910;28;50501;-63
2022/06/04 10:34:00;;;;;;;;;16.75;13.25;;;;;23.17;63.29;101375.28;5053178;28;49741;-68
2022/06/04 10:36:55;;;;;;;;;14.00;14.00;;;;;23.27;62.69;101373.28;5072680;28;49718;-69
2022/06/04 10:39:45;;;;;;;;;13.25;12.50;;;;;23.37;61.52;101374.84;5072041;28;50683;-63
2022/06/04 10:42:25;;;;;;;;;13.00;12.00;;;;;23.52;60.45;101378.94;5072678;28;49864;-62
2022/06/04 10:45:19;;;;;;;;;14.25;13.50;;;;;23.58;61.01;101368.97;5067730;28;49554;-63
2022/06/04 10:48:09;;;;;;;;;11.50;10.50;;;;;23.62;60.97;101356.41;5072605;28;49674;-62
2022/06/04 10:53:52;;;;;;;;;12.00;10.00;;;;;23.74;60.24;101355.22;5072429;27;49696;-65
2022/06/04 10:56:25;;;;;;;;;13.50;11.25;;;;;23.87;60.27;101365.63;5066957;28;49668;-66
2022/06/04 10:59:13;;;;;;;;;11.25;11.00;;;;;23.92;59.81;101366.38;5072508;28;49829;-67
2022/06/04 11:01:51;;;;;;;;;8.25;8.25;;;;;23.89;58.08;101336.09;5059193;28;49648;-67
2022/06/04 11:04:27;;;;;;;;;12.00;11.50;;;;;24.09;57.55;101360.59;5072097;28;49929;-70
2022/06/04 11:07:02;;;;;;;;;9.50;9.50;;;;;24.10;59.07;101354.31;5066021;28;49721;-67
2022/06/04 11:09:41;;;;;;;;;10.25;9.75;;;;;24.08;58.06;101333.81;5054101;28;49772;-68
2022/06/04 11:12:30;;;;;;;;;11.00;11.00;;;;;24.24;55.92;101362.03;5071883;28;50719;-72
2022/06/04 11:15:03;;;;;;;;;10.50;9.50;;;;;24.33;56.42;101353.75;5039798;27;49788;-72
2022/06/04 11:17:55;;;;;;;;;11.00;11.00;;;;;24.41;56.34;101351.72;5072218;28;49787;-69
2022/06/04 11:20:26;;;;;;;;;14.50;12.50;;;;;24.45;57.36;101334.63;5072310;28;49601;-69
2022/06/04 11:23:08;;;;;;;;;11.75;11.75;;;;;24.49;57.77;101335.41;5071568;28;50559;-66
2022/06/04 11:25:38;;;;;;;;;9.00;8.75;;;;;24.50;56.99;101326.44;5072020;28;49689;-67
2022/06/04 11:28:09;;;;;;;;;11.50;11.00;;;;;24.64;55.79;101347.53;5074134;28;49764;-64
2022/06/04 11:30:55;;;;;;;;;11.00;11.00;;;;;24.69;55.09;101338.41;5075918;28;49906;-65
2022/06/04 11:34:01;;;;;;;;;11.25;11.25;;;;;24.75;56.35;101326.63;5070008;28;49816;-73
2022/06/04 11:36:45;;;;;;;;;12.75;11.50;;;;;24.74;54.13;101330.25;5075214;28;49656;-71
2022/06/04 11:39:25;;;;;;;;;11.75;11.75;;;;;24.75;56.00;101322.16;5070762;28;49668;-70
2022/06/04 11:42:05;;;;;;;;;14.00;13.25;;;;;24.86;55.44;101326.31;5074978;28;49560;-66
2022/06/04 11:44:49;;;;;;;;;12.50;12.50;;;;;24.92;54.44;101326.16;5074796;28;50437;-65